createdAt,value
2018-03-19T00:00:25.011Z,870.77
2018-03-19T00:01:45.991Z,870.77
2018-03-19T00:02:24.968Z,870.84
2018-03-19T00:03:24.953Z,870.79
2018-03-19T00:04:45.948Z,870.78
2018-03-19T00:05:24.920Z,870.81
2018-03-19T00:06:45.910Z,870.83
2018-03-19T00:07:24.889Z,870.81
2018-03-19T00:08:24.870Z,870.89
2018-03-19T00:09:45.854Z,870.87
2018-03-19T00:10:24.843Z,870.87
2018-03-19T00:11:45.834Z,870.85
2018-03-19T00:12:24.806Z,870.87
2018-03-19T00:13:24.787Z,870.88
2018-03-19T00:14:45.777Z,870.88
2018-03-19T00:15:24.763Z,870.90
2018-03-19T00:16:45.746Z,870.88
2018-03-19T00:17:24.726Z,870.94
2018-03-19T00:18:24.708Z,870.92
2018-03-19T00:19:45.690Z,870.88
2018-03-19T00:20:24.672Z,870.91
2018-03-19T00:21:45.661Z,870.92
2018-03-19T00:22:24.638Z,870.88
2018-03-19T00:23:24.624Z,870.88
2018-03-19T00:24:45.604Z,870.85
2018-03-19T00:25:24.591Z,870.87
2018-03-19T00:26:45.572Z,870.86
2018-03-19T00:27:24.557Z,870.87
2018-03-19T00:28:24.540Z,870.87
2018-03-19T00:29:45.524Z,870.84
2018-03-19T00:30:24.503Z,870.85
2018-03-19T00:31:45.488Z,870.83
2018-03-19T00:32:24.464Z,870.85
2018-03-19T00:33:24.454Z,870.87
2018-03-19T00:34:45.442Z,870.84
2018-03-19T00:35:24.420Z,870.81
2018-03-19T00:36:45.404Z,870.86
2018-03-19T00:37:24.382Z,870.87
2018-03-19T00:38:24.369Z,870.83
2018-03-19T00:39:45.358Z,870.86
2018-03-19T00:40:24.334Z,870.86
2018-03-19T00:41:45.321Z,870.85
2018-03-19T00:42:24.300Z,870.82
2018-03-19T00:43:24.286Z,870.79
2018-03-19T00:44:45.268Z,870.84
2018-03-19T00:45:24.254Z,870.83
2018-03-19T00:46:45.244Z,870.83
2018-03-19T00:47:24.217Z,870.82
2018-03-19T00:48:24.202Z,870.85
2018-03-19T00:49:45.188Z,870.83
2018-03-19T00:50:24.172Z,870.81
2018-03-19T00:51:45.160Z,870.87
2018-03-19T00:52:24.137Z,870.84
2018-03-19T00:53:24.129Z,870.80
2018-03-19T00:54:45.110Z,870.83
2018-03-19T00:55:24.086Z,870.86
2018-03-19T00:56:45.079Z,870.84
2018-03-19T00:57:24.053Z,870.83
2018-03-19T00:58:24.032Z,870.85
2018-03-19T00:59:45.022Z,870.90
2018-03-19T01:00:24.006Z,870.84
2018-03-19T01:01:44.985Z,870.87
2018-03-19T01:02:23.970Z,870.86
2018-03-19T01:03:23.962Z,870.79
2018-03-19T01:04:44.940Z,870.79
2018-03-19T01:05:23.923Z,870.80
2018-03-19T01:06:44.912Z,870.76
2018-03-19T01:07:23.886Z,870.76
2018-03-19T01:08:23.880Z,870.76
2018-03-19T01:09:44.857Z,870.74
2018-03-19T01:10:23.836Z,870.72
2018-03-19T01:11:44.825Z,870.74
2018-03-19T01:12:23.804Z,870.70
2018-03-19T01:13:23.788Z,870.69
2018-03-19T01:14:44.780Z,870.70
2018-03-19T01:15:23.755Z,870.67
2018-03-19T01:16:44.745Z,870.63
2018-03-19T01:17:23.726Z,870.60
2018-03-19T01:18:23.750Z,870.61
2018-03-19T01:19:44.693Z,870.59
2018-03-19T01:20:23.674Z,870.62
2018-03-19T01:21:44.659Z,870.61
2018-03-19T01:22:23.641Z,870.59
2018-03-19T01:23:23.624Z,870.64
2018-03-19T01:24:44.606Z,870.65
2018-03-19T01:25:23.593Z,870.59
2018-03-19T01:26:44.576Z,870.60
2018-03-19T01:27:23.555Z,870.61
2018-03-19T01:28:23.542Z,870.61
2018-03-19T01:29:44.524Z,870.60
2018-03-19T01:30:23.507Z,870.63
2018-03-19T01:31:44.496Z,870.58
2018-03-19T01:32:23.474Z,870.53
2018-03-19T01:33:23.455Z,870.53
2018-03-19T01:34:44.441Z,870.50
2018-03-19T01:35:23.427Z,870.52
2018-03-19T01:36:44.409Z,870.52
2018-03-19T01:37:23.391Z,870.48
2018-03-19T01:38:23.370Z,870.54
2018-03-19T01:39:44.350Z,870.56
2018-03-19T01:40:23.332Z,870.55
2018-03-19T01:41:44.320Z,870.56
2018-03-19T01:42:23.299Z,870.58
2018-03-19T01:43:23.284Z,870.60
2018-03-19T01:44:44.264Z,870.61
2018-03-19T01:45:23.248Z,870.62
2018-03-19T01:46:44.251Z,870.65
2018-03-19T01:47:23.215Z,870.67
2018-03-19T01:48:23.197Z,870.63
2018-03-19T01:49:44.185Z,870.64
2018-03-19T01:50:23.166Z,870.62
2018-03-19T01:51:44.158Z,870.65
2018-03-19T01:52:23.132Z,870.62
2018-03-19T01:53:23.120Z,870.64
2018-03-19T01:54:44.100Z,870.62
2018-03-19T01:55:23.081Z,870.65
2018-03-19T01:56:44.068Z,870.64
2018-03-19T01:57:23.050Z,870.62
2018-03-19T01:58:23.028Z,870.65
2018-03-19T01:59:44.014Z,870.64
2018-03-19T02:00:22.992Z,870.63
2018-03-19T02:01:43.979Z,870.64
2018-03-19T02:02:22.966Z,870.62
2018-03-19T02:03:22.957Z,870.62
2018-03-19T02:04:43.933Z,870.60
2018-03-19T02:05:22.914Z,870.62
2018-03-19T02:06:43.904Z,870.63
2018-03-19T02:07:22.880Z,870.60
2018-03-19T02:08:22.859Z,870.58
2018-03-19T02:09:43.846Z,870.55
2018-03-19T02:10:22.833Z,870.56
2018-03-19T02:11:43.821Z,870.56
2018-03-19T02:12:22.797Z,870.56
2018-03-19T02:13:22.778Z,870.54
2018-03-19T02:14:43.772Z,870.56
2018-03-19T02:15:22.749Z,870.54
2018-03-19T02:16:43.734Z,870.58
2018-03-19T02:17:22.717Z,870.58
2018-03-19T02:18:22.692Z,870.56
2018-03-19T02:19:43.678Z,870.61
2018-03-19T02:20:22.657Z,870.59
2018-03-19T02:21:43.645Z,870.64
2018-03-19T02:22:22.629Z,870.63
2018-03-19T02:23:22.613Z,870.66
2018-03-19T02:24:43.596Z,870.65
2018-03-19T02:25:22.580Z,870.65
2018-03-19T02:26:43.579Z,870.58
2018-03-19T02:27:22.545Z,870.57
2018-03-19T02:28:22.529Z,870.50
2018-03-19T02:29:43.510Z,870.51
2018-03-19T02:30:22.496Z,870.51
2018-03-19T02:31:43.491Z,870.51
2018-03-19T02:32:22.459Z,870.49
2018-03-19T02:33:22.443Z,870.49
2018-03-19T02:34:43.427Z,870.46
2018-03-19T02:35:22.406Z,870.45
2018-03-19T02:36:43.399Z,870.45
2018-03-19T02:37:22.374Z,870.46
2018-03-19T02:38:22.359Z,870.46
2018-03-19T02:39:43.344Z,870.49
2018-03-19T02:40:22.335Z,870.49
2018-03-19T02:41:43.308Z,870.51
2018-03-19T02:42:22.286Z,870.51
2018-03-19T02:43:22.268Z,870.51
2018-03-19T02:44:43.254Z,870.53
2018-03-19T02:45:22.236Z,870.58
2018-03-19T02:46:43.221Z,870.58
2018-03-19T02:47:22.216Z,870.62
2018-03-19T02:48:22.185Z,870.64
2018-03-19T02:49:43.172Z,870.68
2018-03-19T02:50:22.153Z,870.71
2018-03-19T02:51:43.142Z,870.70
2018-03-19T02:52:22.119Z,870.70
2018-03-19T02:53:22.106Z,870.76
2018-03-19T02:54:43.087Z,870.80
2018-03-19T02:55:22.072Z,870.82
2018-03-19T02:56:43.065Z,870.84
2018-03-19T02:57:22.039Z,870.86
2018-03-19T02:58:22.012Z,870.91
2018-03-19T02:59:43.000Z,870.87
2018-03-19T03:00:21.978Z,870.88
2018-03-19T03:01:42.960Z,870.88
2018-03-19T03:02:21.947Z,870.91
2018-03-19T03:03:21.931Z,870.92
2018-03-19T03:04:42.910Z,870.91
2018-03-19T03:05:21.892Z,870.91
2018-03-19T03:06:42.887Z,870.95
2018-03-19T03:07:21.862Z,870.98
2018-03-19T03:08:21.842Z,870.97
2018-03-19T03:09:42.827Z,870.94
2018-03-19T03:10:21.807Z,870.91
2018-03-19T03:11:42.794Z,870.96
2018-03-19T03:12:21.772Z,870.93
2018-03-19T03:13:21.754Z,870.91
2018-03-19T03:14:42.749Z,870.90
2018-03-19T03:15:21.723Z,870.91
2018-03-19T03:16:42.712Z,870.88
2018-03-19T03:17:21.689Z,870.88
2018-03-19T03:18:21.672Z,870.87
2018-03-19T03:19:42.656Z,870.84
2018-03-19T03:20:21.639Z,870.88
2018-03-19T03:21:42.625Z,870.87
2018-03-19T03:22:21.600Z,870.84
2018-03-19T03:23:21.602Z,870.84
2018-03-19T03:24:42.572Z,870.87
2018-03-19T03:25:21.550Z,870.91
2018-03-19T03:26:42.538Z,870.88
2018-03-19T03:27:22.518Z,870.85
2018-03-19T03:28:21.563Z,870.89
2018-03-19T03:29:42.486Z,870.90
2018-03-19T03:30:21.537Z,870.87
2018-03-19T03:31:42.452Z,870.85
2018-03-19T03:32:21.456Z,870.91
2018-03-19T03:33:21.422Z,870.89
2018-03-19T03:34:42.402Z,870.90
2018-03-19T03:35:21.379Z,870.92
2018-03-19T03:36:42.369Z,870.91
2018-03-19T03:37:21.352Z,870.97
2018-03-19T03:38:21.332Z,870.95
2018-03-19T03:39:42.312Z,870.94
2018-03-19T03:40:21.293Z,870.99
2018-03-19T03:41:42.282Z,870.98
2018-03-19T03:42:21.263Z,871.01
2018-03-19T03:43:21.242Z,871.00
2018-03-19T03:44:42.228Z,870.97
2018-03-19T03:45:21.210Z,870.99
2018-03-19T03:46:42.195Z,871.00
2018-03-19T03:47:21.179Z,871.02
2018-03-19T03:48:21.159Z,870.99
2018-03-19T03:49:42.147Z,871.05
2018-03-19T03:50:21.131Z,871.02
2018-03-19T03:51:42.109Z,871.01
2018-03-19T03:52:21.088Z,871.01
2018-03-19T03:53:21.077Z,870.99
2018-03-19T03:54:42.052Z,870.97
2018-03-19T03:55:21.042Z,871.01
2018-03-19T03:56:42.022Z,870.99
2018-03-19T03:57:21.008Z,871.00
2018-03-19T03:58:20.990Z,871.01
2018-03-19T03:59:41.970Z,870.99
2018-03-19T04:00:20.948Z,870.95
2018-03-19T04:01:41.930Z,870.98
2018-03-19T04:02:20.919Z,870.98
2018-03-19T04:03:20.901Z,870.98
2018-03-19T04:04:41.887Z,870.99
2018-03-19T04:05:20.863Z,871.00
2018-03-19T04:06:41.848Z,871.00
2018-03-19T04:07:20.829Z,871.02
2018-03-19T04:08:20.809Z,871.02
2018-03-19T04:09:41.801Z,870.99
2018-03-19T04:10:20.778Z,870.99
2018-03-19T04:11:41.763Z,871.00
2018-03-19T04:12:20.738Z,870.95
2018-03-19T04:13:20.727Z,870.98
2018-03-19T04:14:41.708Z,870.97
2018-03-19T04:15:20.689Z,870.99
2018-03-19T04:16:41.672Z,870.98
2018-03-19T04:17:20.650Z,870.99
2018-03-19T04:18:20.639Z,870.99
2018-03-19T04:19:41.619Z,871.02
2018-03-19T04:20:20.601Z,871.03
2018-03-19T04:21:41.581Z,871.01
2018-03-19T04:22:20.564Z,871.00
2018-03-19T04:23:20.551Z,871.04
2018-03-19T04:24:41.525Z,871.01
2018-03-19T04:25:20.511Z,871.03
2018-03-19T04:26:41.490Z,871.08
2018-03-19T04:27:20.474Z,871.04
2018-03-19T04:28:20.458Z,871.02
2018-03-19T04:29:41.446Z,871.02
2018-03-19T04:30:20.423Z,871.04
2018-03-19T04:31:41.407Z,871.07
2018-03-19T04:32:20.387Z,871.03
2018-03-19T04:33:20.367Z,871.03
2018-03-19T04:34:41.352Z,871.04
2018-03-19T04:35:20.334Z,871.08
2018-03-19T04:36:41.315Z,871.05
2018-03-19T04:37:20.296Z,871.11
2018-03-19T04:38:20.281Z,871.07
2018-03-19T04:39:41.268Z,871.09
2018-03-19T04:40:20.245Z,871.05
2018-03-19T04:41:41.229Z,871.10
2018-03-19T04:42:20.210Z,871.10
2018-03-19T04:43:20.192Z,871.11
2018-03-19T04:44:41.180Z,871.09
2018-03-19T04:45:20.154Z,871.11
2018-03-19T04:46:41.146Z,871.08
2018-03-19T04:47:20.123Z,871.10
2018-03-19T04:48:20.103Z,871.12
2018-03-19T04:49:41.089Z,871.12
2018-03-19T04:50:20.068Z,871.11
2018-03-19T04:51:41.056Z,871.12
2018-03-19T04:52:20.027Z,871.09
2018-03-19T04:53:20.014Z,871.15
2018-03-19T04:54:41.000Z,871.08
2018-03-19T04:55:19.974Z,871.13
2018-03-19T04:56:40.963Z,871.16
2018-03-19T04:57:19.948Z,871.13
2018-03-19T04:58:19.930Z,871.13
2018-03-19T04:59:40.916Z,871.14
2018-03-19T05:00:19.895Z,871.16
2018-03-19T05:01:40.878Z,871.16
2018-03-19T05:02:19.865Z,871.15
2018-03-19T05:03:19.845Z,871.15
2018-03-19T05:04:40.828Z,871.14
2018-03-19T05:05:19.811Z,871.11
2018-03-19T05:06:40.792Z,871.15
2018-03-19T05:07:19.772Z,871.16
2018-03-19T05:08:19.752Z,871.17
2018-03-19T05:09:40.743Z,871.19
2018-03-19T05:10:19.717Z,871.21
2018-03-19T05:11:40.705Z,871.21
2018-03-19T05:12:19.691Z,871.19
2018-03-19T05:13:19.668Z,871.20
2018-03-19T05:14:40.653Z,871.22
2018-03-19T05:15:19.634Z,871.23
2018-03-19T05:16:40.617Z,871.23
2018-03-19T05:17:19.595Z,871.26
2018-03-19T05:18:19.578Z,871.23
2018-03-19T05:19:40.568Z,871.22
2018-03-19T05:20:19.544Z,871.24
2018-03-19T05:21:40.534Z,871.27
2018-03-19T05:22:19.513Z,871.26
2018-03-19T05:23:19.496Z,871.28
2018-03-19T05:24:40.477Z,871.27
2018-03-19T05:25:19.456Z,871.29
2018-03-19T05:26:40.444Z,871.29
2018-03-19T05:27:19.431Z,871.30
2018-03-19T05:28:19.405Z,871.30
2018-03-19T05:29:40.395Z,871.30
2018-03-19T05:30:19.366Z,871.29
2018-03-19T05:31:40.354Z,871.31
2018-03-19T05:32:19.337Z,871.30
2018-03-19T05:33:19.320Z,871.30
2018-03-19T05:34:40.303Z,871.35
2018-03-19T05:35:19.280Z,871.34
2018-03-19T05:36:40.267Z,871.34
2018-03-19T05:37:19.248Z,871.34
2018-03-19T05:38:19.233Z,871.32
2018-03-19T05:39:40.222Z,871.36
2018-03-19T05:40:19.198Z,871.34
2018-03-19T05:41:40.182Z,871.31
2018-03-19T05:42:19.159Z,871.34
2018-03-19T05:43:19.144Z,871.34
2018-03-19T05:44:40.127Z,871.31
2018-03-19T05:45:19.102Z,871.30
2018-03-19T05:46:40.093Z,871.34
2018-03-19T05:47:19.068Z,871.37
2018-03-19T05:48:19.056Z,871.39
2018-03-19T05:49:40.041Z,871.36
2018-03-19T05:50:19.023Z,871.41
2018-03-19T05:51:40.004Z,871.38
2018-03-19T05:52:18.982Z,871.36
2018-03-19T05:53:18.972Z,871.39
2018-03-19T05:54:39.957Z,871.36
2018-03-19T05:55:18.933Z,871.39
2018-03-19T05:56:39.932Z,871.38
2018-03-19T05:57:18.908Z,871.42
2018-03-19T05:58:18.885Z,871.38
2018-03-19T05:59:39.867Z,871.42
2018-03-19T06:00:18.865Z,871.40
2018-03-19T06:01:39.831Z,871.42
2018-03-19T06:02:18.813Z,871.41
2018-03-19T06:03:18.795Z,871.42
2018-03-19T06:04:39.779Z,871.45
2018-03-19T06:05:18.754Z,871.46
2018-03-19T06:06:39.749Z,871.46
2018-03-19T06:07:18.773Z,871.47
2018-03-19T06:08:18.715Z,871.47
2018-03-19T06:09:39.698Z,871.46
2018-03-19T06:10:18.676Z,871.46
2018-03-19T06:11:39.660Z,871.48
2018-03-19T06:12:18.645Z,871.51
2018-03-19T06:13:18.620Z,871.46
2018-03-19T06:14:39.608Z,871.50
2018-03-19T06:15:18.590Z,871.53
2018-03-19T06:16:39.574Z,871.51
2018-03-19T06:17:18.558Z,871.56
2018-03-19T06:18:18.535Z,871.51
2018-03-19T06:19:39.520Z,871.54
2018-03-19T06:20:18.503Z,871.54
2018-03-19T06:21:39.484Z,871.55
2018-03-19T06:22:18.471Z,871.56
2018-03-19T06:23:18.448Z,871.59
2018-03-19T06:24:39.439Z,871.57
2018-03-19T06:25:18.415Z,871.56
2018-03-19T06:26:39.394Z,871.56
2018-03-19T06:27:18.380Z,871.56
2018-03-19T06:28:18.361Z,871.58
2018-03-19T06:29:39.349Z,871.58
2018-03-19T06:30:18.327Z,871.57
2018-03-19T06:31:39.315Z,871.58
2018-03-19T06:32:18.291Z,871.60
2018-03-19T06:33:18.278Z,871.63
2018-03-19T06:34:39.266Z,871.63
2018-03-19T06:35:18.242Z,871.64
2018-03-19T06:36:39.232Z,871.61
2018-03-19T06:37:18.208Z,871.62
2018-03-19T06:38:18.193Z,871.64
2018-03-19T06:39:39.182Z,871.63
2018-03-19T06:40:18.156Z,871.60
2018-03-19T06:41:39.139Z,871.66
2018-03-19T06:42:18.121Z,871.64
2018-03-19T06:43:18.099Z,871.62
2018-03-19T06:44:39.087Z,871.65
2018-03-19T06:45:18.073Z,871.65
2018-03-19T06:46:39.053Z,871.67
2018-03-19T06:47:18.033Z,871.65
2018-03-19T06:48:18.015Z,871.70
2018-03-19T06:49:39.008Z,871.68
2018-03-19T06:50:17.984Z,871.69
2018-03-19T06:51:38.972Z,871.72
2018-03-19T06:52:17.954Z,871.73
2018-03-19T06:53:17.937Z,871.76
2018-03-19T06:54:38.923Z,871.78
2018-03-19T06:55:17.896Z,871.74
2018-03-19T06:56:38.881Z,871.76
2018-03-19T06:57:17.868Z,871.76
2018-03-19T06:58:17.850Z,871.76
2018-03-19T06:59:38.836Z,871.78
2018-03-19T07:00:17.814Z,871.79
2018-03-19T07:01:38.802Z,871.81
2018-03-19T07:02:17.785Z,871.79
2018-03-19T07:03:17.820Z,871.78
2018-03-19T07:04:38.753Z,871.83
2018-03-19T07:05:17.729Z,871.80
2018-03-19T07:06:38.717Z,871.79
2018-03-19T07:07:17.695Z,871.82
2018-03-19T07:08:17.683Z,871.80
2018-03-19T07:09:38.663Z,871.79
2018-03-19T07:10:17.643Z,871.80
2018-03-19T07:11:38.630Z,871.80
2018-03-19T07:12:17.608Z,871.80
2018-03-19T07:13:17.598Z,871.84
2018-03-19T07:14:38.582Z,871.80
2018-03-19T07:15:17.560Z,871.83
2018-03-19T07:16:38.548Z,871.84
2018-03-19T07:17:17.575Z,871.85
2018-03-19T07:18:17.511Z,871.83
2018-03-19T07:19:38.498Z,871.88
2018-03-19T07:20:17.478Z,871.86
2018-03-19T07:21:38.463Z,871.87
2018-03-19T07:22:17.453Z,871.89
2018-03-19T07:23:17.423Z,871.92
2018-03-19T07:24:38.413Z,871.91
2018-03-19T07:25:17.394Z,871.88
2018-03-19T07:26:38.382Z,871.93
2018-03-19T07:27:17.358Z,871.90
2018-03-19T07:28:17.347Z,871.92
2018-03-19T07:29:38.329Z,871.92
2018-03-19T07:30:17.311Z,871.91
2018-03-19T07:31:38.295Z,871.90
2018-03-19T07:32:17.271Z,871.93
2018-03-19T07:33:17.259Z,871.93
2018-03-19T07:34:38.262Z,871.96
2018-03-19T07:35:17.223Z,871.93
2018-03-19T07:36:38.207Z,871.92
2018-03-19T07:37:17.195Z,871.97
2018-03-19T07:38:17.174Z,871.93
2018-03-19T07:39:38.161Z,871.97
2018-03-19T07:40:17.142Z,871.98
2018-03-19T07:41:38.130Z,871.99
2018-03-19T07:42:17.108Z,872.02
2018-03-19T07:43:17.088Z,871.99
2018-03-19T07:44:38.076Z,872.01
2018-03-19T07:45:17.053Z,872.00
2018-03-19T07:46:38.045Z,872.03
2018-03-19T07:47:17.021Z,871.99
2018-03-19T07:48:17.005Z,872.00
2018-03-19T07:49:37.991Z,871.99
2018-03-19T07:50:16.969Z,871.96
2018-03-19T07:51:37.964Z,871.98
2018-03-19T07:52:16.935Z,871.98
2018-03-19T07:53:16.924Z,871.98
2018-03-19T07:54:37.918Z,871.98
2018-03-19T07:55:16.892Z,871.97
2018-03-19T07:56:37.879Z,872.00
2018-03-19T07:57:16.891Z,872.01
2018-03-19T07:58:16.840Z,872.01
2018-03-19T07:59:37.830Z,872.01
2018-03-19T08:00:16.806Z,872.04
2018-03-19T08:01:37.847Z,872.06
2018-03-19T08:02:16.767Z,872.04
2018-03-19T08:03:16.753Z,872.06
2018-03-19T08:04:37.739Z,872.12
2018-03-19T08:05:16.721Z,872.10
2018-03-19T08:06:37.707Z,872.12
2018-03-19T08:07:16.693Z,872.11
2018-03-19T08:08:16.667Z,872.11
2018-03-19T08:09:37.662Z,872.12
2018-03-19T08:10:16.639Z,872.16
2018-03-19T08:11:37.628Z,872.12
2018-03-19T08:12:16.665Z,872.13
2018-03-19T08:13:16.589Z,872.17
2018-03-19T08:14:37.578Z,872.13
2018-03-19T08:15:16.558Z,872.16
2018-03-19T08:16:37.546Z,872.14
2018-03-19T08:17:16.525Z,872.15
2018-03-19T08:18:16.512Z,872.17
2018-03-19T08:19:37.498Z,872.21
2018-03-19T08:20:16.477Z,872.20
2018-03-19T08:21:37.467Z,872.20
2018-03-19T08:22:16.439Z,872.20
2018-03-19T08:23:16.429Z,872.20
2018-03-19T08:24:37.415Z,872.18
2018-03-19T08:25:16.398Z,872.22
2018-03-19T08:26:37.382Z,872.20
2018-03-19T08:27:16.364Z,872.21
2018-03-19T08:28:16.342Z,872.17
2018-03-19T08:29:37.336Z,872.15
2018-03-19T08:30:16.318Z,872.20
2018-03-19T08:31:37.300Z,872.17
2018-03-19T08:32:16.278Z,872.19
2018-03-19T08:33:16.261Z,872.21
2018-03-19T08:34:37.249Z,872.19
2018-03-19T08:35:16.232Z,872.22
2018-03-19T08:36:37.213Z,872.23
2018-03-19T08:37:16.198Z,872.23
2018-03-19T08:38:16.182Z,872.25
2018-03-19T08:39:37.162Z,872.23
2018-03-19T08:40:16.147Z,872.21
2018-03-19T08:41:37.137Z,872.23
2018-03-19T08:42:16.118Z,872.24
2018-03-19T08:43:16.099Z,872.23
2018-03-19T08:44:37.087Z,872.23
2018-03-19T08:45:16.071Z,872.27
2018-03-19T08:46:37.068Z,872.24
2018-03-19T08:47:16.041Z,872.22
2018-03-19T08:48:16.016Z,872.23
2018-03-19T08:49:37.009Z,872.23
2018-03-19T08:50:15.986Z,872.23
2018-03-19T08:51:36.979Z,872.25
2018-03-19T08:52:15.951Z,872.25
2018-03-19T08:53:15.943Z,872.23
2018-03-19T08:54:36.920Z,872.23
2018-03-19T08:55:15.907Z,872.23
2018-03-19T08:56:36.897Z,872.25
2018-03-19T08:57:15.872Z,872.25
2018-03-19T08:58:15.861Z,872.26
2018-03-19T08:59:36.844Z,872.27
2018-03-19T09:00:15.829Z,872.30
2018-03-19T09:01:36.809Z,872.31
2018-03-19T09:02:15.795Z,872.31
2018-03-19T09:03:15.783Z,872.29
2018-03-19T09:04:36.765Z,872.29
2018-03-19T09:05:15.750Z,872.30
2018-03-19T09:06:36.742Z,872.27
2018-03-19T09:07:15.778Z,872.29
2018-03-19T09:08:15.698Z,872.28
2018-03-19T09:09:36.688Z,872.33
2018-03-19T09:10:15.668Z,872.30
2018-03-19T09:11:36.658Z,872.27
2018-03-19T09:12:15.638Z,872.29
2018-03-19T09:13:15.622Z,872.27
2018-03-19T09:14:36.605Z,872.31
2018-03-19T09:15:15.585Z,872.30
2018-03-19T09:16:36.575Z,872.26
2018-03-19T09:17:15.556Z,872.30
2018-03-19T09:18:15.543Z,872.30
2018-03-19T09:19:36.528Z,872.27
2018-03-19T09:20:15.507Z,872.28
2018-03-19T09:21:36.498Z,872.30
2018-03-19T09:22:15.476Z,872.30
2018-03-19T09:23:15.468Z,872.30
2018-03-19T09:24:36.455Z,872.26
2018-03-19T09:25:15.435Z,872.29
2018-03-19T09:26:36.426Z,872.29
2018-03-19T09:27:15.402Z,872.29
2018-03-19T09:28:15.384Z,872.29
2018-03-19T09:29:36.375Z,872.29
2018-03-19T09:30:15.354Z,872.29
2018-03-19T09:31:36.338Z,872.33
2018-03-19T09:32:15.319Z,872.32
2018-03-19T09:33:15.308Z,872.32
2018-03-19T09:34:36.298Z,872.32
2018-03-19T09:35:15.277Z,872.36
2018-03-19T09:36:36.285Z,872.38
2018-03-19T09:37:15.244Z,872.38
2018-03-19T09:38:15.237Z,872.38
2018-03-19T09:39:36.218Z,872.38
2018-03-19T09:40:15.197Z,872.37
2018-03-19T09:41:36.229Z,872.41
2018-03-19T09:42:15.171Z,872.41
2018-03-19T09:43:15.146Z,872.41
2018-03-19T09:44:36.144Z,872.41
2018-03-19T09:45:15.122Z,872.43
2018-03-19T09:46:36.110Z,872.44
2018-03-19T09:47:15.088Z,872.46
2018-03-19T09:48:15.081Z,872.45
2018-03-19T09:49:36.066Z,872.48
2018-03-19T09:50:15.046Z,872.50
2018-03-19T09:51:36.033Z,872.49
2018-03-19T09:52:15.020Z,872.47
2018-03-19T09:53:14.993Z,872.51
2018-03-19T09:54:36.002Z,872.51
2018-03-19T09:55:14.967Z,872.49
2018-03-19T09:56:35.953Z,872.52
2018-03-19T09:57:14.937Z,872.51
2018-03-19T09:58:14.925Z,872.50
2018-03-19T09:59:35.914Z,872.51
2018-03-19T10:00:14.886Z,872.48
2018-03-19T10:01:35.880Z,872.49
2018-03-19T10:02:14.864Z,872.50
2018-03-19T10:03:14.846Z,872.53
2018-03-19T10:04:35.834Z,872.50
2018-03-19T10:05:14.820Z,872.53
2018-03-19T10:06:35.806Z,872.53
2018-03-19T10:07:14.784Z,872.53
2018-03-19T10:08:14.772Z,872.57
2018-03-19T10:09:35.757Z,872.60
2018-03-19T10:10:14.752Z,872.57
2018-03-19T10:11:35.726Z,872.53
2018-03-19T10:12:14.714Z,872.54
2018-03-19T10:13:14.698Z,872.53
2018-03-19T10:14:35.680Z,872.52
2018-03-19T10:15:14.660Z,872.51
2018-03-19T10:16:35.647Z,872.53
2018-03-19T10:17:14.632Z,872.58
2018-03-19T10:18:14.620Z,872.54
2018-03-19T10:19:35.615Z,872.55
2018-03-19T10:20:14.584Z,872.56
2018-03-19T10:21:35.574Z,872.58
2018-03-19T10:22:14.560Z,872.58
2018-03-19T10:23:14.543Z,872.56
2018-03-19T10:24:35.530Z,872.59
2018-03-19T10:25:14.511Z,872.51
2018-03-19T10:26:35.501Z,872.55
2018-03-19T10:27:14.486Z,872.54
2018-03-19T10:28:14.473Z,872.56
2018-03-19T10:29:35.456Z,872.57
2018-03-19T10:30:14.438Z,872.52
2018-03-19T10:31:35.425Z,872.56
2018-03-19T10:32:14.409Z,872.54
2018-03-19T10:33:14.392Z,872.53
2018-03-19T10:34:35.389Z,872.57
2018-03-19T10:35:14.367Z,872.56
2018-03-19T10:36:35.354Z,872.54
2018-03-19T10:37:14.336Z,872.54
2018-03-19T10:38:14.317Z,872.56
2018-03-19T10:39:35.306Z,872.55
2018-03-19T10:40:14.293Z,872.53
2018-03-19T10:41:35.279Z,872.53
2018-03-19T10:42:14.265Z,872.51
2018-03-19T10:43:14.249Z,872.54
2018-03-19T10:44:35.232Z,872.60
2018-03-19T10:45:14.225Z,872.54
2018-03-19T10:46:35.207Z,872.56
2018-03-19T10:47:14.195Z,872.55
2018-03-19T10:48:14.171Z,872.56
2018-03-19T10:49:35.155Z,872.58
2018-03-19T10:50:14.135Z,872.58
2018-03-19T10:51:35.123Z,872.57
2018-03-19T10:52:14.108Z,872.56
2018-03-19T10:53:14.098Z,872.57
2018-03-19T10:54:35.083Z,872.59
2018-03-19T10:55:14.064Z,872.57
2018-03-19T10:56:35.054Z,872.54
2018-03-19T10:57:14.039Z,872.58
2018-03-19T10:58:14.025Z,872.56
2018-03-19T10:59:35.010Z,872.57
2018-03-19T11:00:13.997Z,872.56
2018-03-19T11:01:34.987Z,872.54
2018-03-19T11:02:13.964Z,872.55
2018-03-19T11:03:13.964Z,872.54
2018-03-19T11:04:34.943Z,872.52
2018-03-19T11:05:13.921Z,872.52
2018-03-19T11:06:34.908Z,872.49
2018-03-19T11:07:13.888Z,872.54
2018-03-19T11:08:13.880Z,872.48
2018-03-19T11:09:34.864Z,872.49
2018-03-19T11:10:13.851Z,872.50
2018-03-19T11:11:34.835Z,872.51
2018-03-19T11:12:13.835Z,872.50
2018-03-19T11:13:13.806Z,872.48
2018-03-19T11:14:34.799Z,872.49
2018-03-19T11:15:13.775Z,872.52
2018-03-19T11:16:34.764Z,872.48
2018-03-19T11:17:13.746Z,872.52
2018-03-19T11:18:13.729Z,872.51
2018-03-19T11:19:34.718Z,872.48
2018-03-19T11:20:13.700Z,872.50
2018-03-19T11:21:34.699Z,872.52
2018-03-19T11:22:13.673Z,872.51
2018-03-19T11:23:13.664Z,872.49
2018-03-19T11:24:34.650Z,872.52
2018-03-19T11:25:13.630Z,872.56
2018-03-19T11:26:34.614Z,872.52
2018-03-19T11:27:13.600Z,872.55
2018-03-19T11:28:13.588Z,872.52
2018-03-19T11:29:34.577Z,872.56
2018-03-19T11:30:13.555Z,872.55
2018-03-19T11:31:34.542Z,872.59
2018-03-19T11:32:13.525Z,872.54
2018-03-19T11:33:13.516Z,872.57
2018-03-19T11:34:34.500Z,872.55
2018-03-19T11:35:13.486Z,872.57
2018-03-19T11:36:34.486Z,872.57
2018-03-19T11:37:13.452Z,872.58
2018-03-19T11:38:13.441Z,872.60
2018-03-19T11:39:34.433Z,872.57
2018-03-19T11:40:13.414Z,872.56
2018-03-19T11:41:34.400Z,872.53
2018-03-19T11:42:13.386Z,872.55
2018-03-19T11:43:13.379Z,872.56
2018-03-19T11:44:34.353Z,872.56
2018-03-19T11:45:13.336Z,872.55
2018-03-19T11:46:34.322Z,872.55
2018-03-19T11:47:13.324Z,872.52
2018-03-19T11:48:13.294Z,872.57
2018-03-19T11:49:34.288Z,872.54
2018-03-19T11:50:13.264Z,872.59
2018-03-19T11:51:34.255Z,872.52
2018-03-19T11:52:13.236Z,872.56
2018-03-19T11:53:13.228Z,872.50
2018-03-19T11:54:34.221Z,872.49
2018-03-19T11:55:13.190Z,872.46
2018-03-19T11:56:34.179Z,872.46
2018-03-19T11:57:13.163Z,872.50
2018-03-19T11:58:13.147Z,872.48
2018-03-19T11:59:34.143Z,872.46
2018-03-19T12:00:13.122Z,872.51
2018-03-19T12:01:34.114Z,872.47
2018-03-19T12:02:13.089Z,872.51
2018-03-19T12:03:13.082Z,872.50
2018-03-19T12:04:34.072Z,872.49
2018-03-19T12:05:13.048Z,872.52
2018-03-19T12:06:34.038Z,872.53
2018-03-19T12:07:13.021Z,872.54
2018-03-19T12:08:13.002Z,872.54
2018-03-19T12:09:33.995Z,872.55
2018-03-19T12:10:12.977Z,872.53
2018-03-19T12:11:33.966Z,872.55
2018-03-19T12:12:12.944Z,872.55
2018-03-19T12:13:12.933Z,872.58
2018-03-19T12:14:33.923Z,872.57
2018-03-19T12:15:12.913Z,872.59
2018-03-19T12:16:33.895Z,872.55
2018-03-19T12:17:12.872Z,872.56
2018-03-19T12:18:12.861Z,872.55
2018-03-19T12:19:33.844Z,872.52
2018-03-19T12:20:12.828Z,872.55
2018-03-19T12:21:33.810Z,872.56
2018-03-19T12:22:12.797Z,872.52
2018-03-19T12:23:12.782Z,872.51
2018-03-19T12:24:33.774Z,872.52
2018-03-19T12:25:12.757Z,872.53
2018-03-19T12:26:33.747Z,872.54
2018-03-19T12:27:12.727Z,872.53
2018-03-19T12:28:12.712Z,872.49